Time;durP1;ratioP1;P1;durP2;ratioP2;P2;SDS_P1;SDS_P2;PMS_P1;PMS_P2;Temp;Humidity;BMP_temperature;BMP_pressure;BME280_temperature;BME280_humidity;BME280_pressure;Samples;Min_cycle;Max_cycle;Signal;HPM_P1;HPM_P2
2024/01/13 00:01:58;;;;;;;21.80;13.93;;;-1.10;99.90;;;;;;485193;245;27933;-65
2024/01/13 00:03:59;;;;;;;23.10;14.60;;;-1.10;99.90;;;;;;485202;245;27402;-65
2024/01/13 00:06:01;;;;;;;23.27;14.65;;;-1.20;99.90;;;;;;485174;245;27426;-65
2024/01/13 00:08:02;;;;;;;23.02;13.65;;;-1.10;99.90;;;;;;485193;245;27511;-65
2024/01/13 00:10:03;;;;;;;23.00;14.32;;;-1.20;99.90;;;;;;485208;245;27422;-65
2024/01/13 00:12:05;;;;;;;25.15;13.75;;;-1.10;99.90;;;;;;485209;245;27422;-66
2024/01/13 00:14:06;;;;;;;24.25;13.95;;;-1.10;99.90;;;;;;485199;245;27979;-65
2024/01/13 00:16:07;;;;;;;22.00;12.85;;;-1.10;99.90;;;;;;485222;245;28027;-65
2024/01/13 00:18:08;;;;;;;21.75;12.68;;;-1.10;99.90;;;;;;485200;245;27414;-65
2024/01/13 00:20:09;;;;;;;20.58;12.55;;;-1.10;99.90;;;;;;485219;245;27489;-65
2024/01/13 00:22:11;;;;;;;19.92;13.85;;;-1.10;99.90;;;;;;485215;245;27414;-65
2024/01/13 00:24:12;;;;;;;24.87;14.20;;;-1.10;99.90;;;;;;485195;245;27406;-65
2024/01/13 00:26:13;;;;;;;27.48;15.07;;;-1.10;99.90;;;;;;485218;245;27898;-65
2024/01/13 00:28:14;;;;;;;23.92;13.95;;;-1.00;99.90;;;;;;485198;245;27967;-65
2024/01/13 00:30:16;;;;;;;21.25;12.95;;;-1.10;99.90;;;;;;485203;245;27407;-65
2024/01/13 00:32:17;;;;;;;21.58;13.50;;;-1.10;99.90;;;;;;485204;245;27423;-65
2024/01/13 00:34:18;;;;;;;22.08;14.07;;;-1.10;99.90;;;;;;485171;245;27402;-65
2024/01/13 00:36:19;;;;;;;21.27;15.10;;;-1.10;99.90;;;;;;485203;245;27483;-65
2024/01/13 00:38:21;;;;;;;21.08;14.20;;;-1.10;99.90;;;;;;485207;242;27903;-66
2024/01/13 00:40:22;;;;;;;28.20;15.98;;;-1.10;99.90;;;;;;485187;245;27972;-65
2024/01/13 00:42:23;;;;;;;23.80;14.02;;;-1.10;99.90;;;;;;485205;245;27519;-65
2024/01/13 00:44:24;;;;;;;26.30;15.68;;;-1.10;99.90;;;;;;485185;245;27421;-65
2024/01/13 00:46:26;;;;;;;23.83;14.45;;;-1.00;99.90;;;;;;485186;245;27411;-65
2024/01/13 00:48:27;;;;;;;26.85;15.88;;;-1.00;99.90;;;;;;485215;245;27414;-65
2024/01/13 00:50:28;;;;;;;29.50;16.35;;;-1.00;99.90;;;;;;485242;245;27961;-65
2024/01/13 00:52:29;;;;;;;24.85;14.90;;;-1.00;99.90;;;;;;485209;245;27882;-65
2024/01/13 00:54:31;;;;;;;24.00;14.65;;;-1.00;99.90;;;;;;485186;245;27506;-65
2024/01/13 00:56:32;;;;;;;23.40;13.70;;;-1.00;99.90;;;;;;485214;245;27398;-65
2024/01/13 00:58:33;;;;;;;26.23;14.27;;;-1.00;99.90;;;;;;485127;245;27407;-65
2024/01/13 01:00:35;;;;;;;25.90;15.60;;;-1.00;99.90;;;;;;485204;245;27400;-65
2024/01/13 01:02:36;;;;;;;24.87;15.23;;;-1.10;99.90;;;;;;485200;245;27406;-65
2024/01/13 01:04:37;;;;;;;26.02;14.40;;;-1.10;99.90;;;;;;485177;245;27878;-66
2024/01/13 01:06:38;;;;;;;24.37;14.63;;;-1.10;99.90;;;;;;485199;245;27479;-65
2024/01/13 01:08:40;;;;;;;24.35;14.52;;;-1.10;99.90;;;;;;485215;245;27411;-65
2024/01/13 01:10:41;;;;;;;23.10;14.13;;;-1.00;99.90;;;;;;485182;245;27414;-65
2024/01/13 01:12:42;;;;;;;24.60;13.90;;;-1.00;99.90;;;;;;485186;245;27489;-65
2024/01/13 01:14:43;;;;;;;24.25;14.80;;;-1.10;99.90;;;;;;485041;245;27435;-66
2024/01/13 01:16:45;;;;;;;21.83;12.90;;;-1.00;99.90;;;;;;485193;245;27874;-64
2024/01/13 01:18:46;;;;;;;29.90;17.35;;;-1.00;99.90;;;;;;485200;245;27876;-65
2024/01/13 01:20:47;;;;;;;25.30;15.93;;;-1.10;99.90;;;;;;485217;245;27509;-67
2024/01/13 01:22:48;;;;;;;24.17;14.15;;;-1.20;99.90;;;;;;485196;245;27481;-65
2024/01/13 01:24:50;;;;;;;24.35;14.25;;;-1.20;99.90;;;;;;485181;245;27426;-65
2024/01/13 01:26:51;;;;;;;23.20;14.00;;;-1.10;99.90;;;;;;485215;245;27414;-65
2024/01/13 01:28:52;;;;;;;23.12;13.57;;;-1.10;99.90;;;;;;485201;245;28023;-65
2024/01/13 01:30:53;;;;;;;21.27;13.98;;;-1.10;99.90;;;;;;485209;245;27886;-66
2024/01/13 01:32:55;;;;;;;26.40;15.05;;;-1.10;99.90;;;;;;485198;242;27507;-65
2024/01/13 01:34:56;;;;;;;23.50;14.40;;;-1.10;99.90;;;;;;485126;245;27415;-65
2024/01/13 01:36:57;;;;;;;26.08;14.75;;;-1.20;99.90;;;;;;485180;245;27427;-65
2024/01/13 01:38:58;;;;;;;27.17;15.75;;;-1.20;99.90;;;;;;485196;245;27406;-65
2024/01/13 01:41:00;;;;;;;21.37;13.80;;;-1.20;99.90;;;;;;485205;245;27423;-66
2024/01/13 01:43:01;;;;;;;24.27;13.70;;;-1.20;99.90;;;;;;485194;245;27850;-65
2024/01/13 01:45:02;;;;;;;22.75;12.93;;;-1.20;99.90;;;;;;485164;245;27497;-65
2024/01/13 01:47:04;;;;;;;25.25;15.30;;;-1.10;99.90;;;;;;485192;245;27513;-65
2024/01/13 01:49:05;;;;;;;22.08;13.45;;;-1.10;99.90;;;;;;485205;245;27407;-65
2024/01/13 01:51:06;;;;;;;22.30;12.80;;;-1.10;99.90;;;;;;485186;245;27411;-65
2024/01/13 01:53:07;;;;;;;22.00;13.23;;;-1.10;99.90;;;;;;485210;245;27493;-65
2024/01/13 01:55:09;;;;;;;20.98;13.50;;;-1.10;99.90;;;;;;485166;245;27887;-65
2024/01/13 01:57:10;;;;;;;22.30;13.75;;;-1.10;99.90;;;;;;485184;245;27970;-65
2024/01/13 01:59:11;;;;;;;22.48;12.88;;;-1.00;99.90;;;;;;485194;245;27398;-65
2024/01/13 02:01:12;;;;;;;25.00;13.35;;;-1.10;99.90;;;;;;485200;245;27516;-66
2024/01/13 02:03:14;;;;;;;19.90;12.43;;;-1.10;99.90;;;;;;485232;245;27476;-65
2024/01/13 02:05:15;;;;;;;24.52;13.00;;;-1.10;99.90;;;;;;485175;245;27390;-65
2024/01/13 02:07:16;;;;;;;22.75;12.07;;;-1.10;99.90;;;;;;485199;245;27905;-66
2024/01/13 02:09:17;;;;;;;23.25;13.05;;;-1.10;99.90;;;;;;485182;245;27972;-65
2024/01/13 02:11:19;;;;;;;20.65;13.45;;;-1.20;99.90;;;;;;485193;245;27483;-65
2024/01/13 02:13:20;;;;;;;23.20;13.43;;;-1.20;99.90;;;;;;485155;245;27481;-66
2024/01/13 02:15:21;;;;;;;22.70;13.73;;;-1.10;99.90;;;;;;485165;245;27515;-64
2024/01/13 02:17:22;;;;;;;23.75;13.38;;;-1.10;99.90;;;;;;485197;245;27480;-66
2024/01/13 02:19:24;;;;;;;22.08;14.02;;;-1.10;99.90;;;;;;485192;245;27819;-65
2024/01/13 02:21:25;;;;;;;19.73;12.68;;;-1.10;99.90;;;;;;485190;245;27968;-65
2024/01/13 02:23:26;;;;;;;25.88;14.82;;;-1.10;99.90;;;;;;484286;245;27412;-66
2024/01/13 02:25:27;;;;;;;21.92;13.70;;;-1.20;99.90;;;;;;478373;248;27415;-65
2024/01/13 02:27:29;;;;;;;22.45;13.98;;;-1.20;99.90;;;;;;478431;248;27415;-65
2024/01/13 02:29:30;;;;;;;22.85;13.62;;;-1.10;99.90;;;;;;478434;248;27964;-65
2024/01/13 02:31:31;;;;;;;22.50;12.55;;;-1.10;99.90;;;;;;478421;248;27475;-64
2024/01/13 02:33:32;;;;;;;25.40;15.45;;;-1.10;99.90;;;;;;478429;248;27895;-66
2024/01/13 02:35:34;;;;;;;23.60;13.40;;;-1.10;99.90;;;;;;478413;248;27432;-65
2024/01/13 02:37:35;;;;;;;19.75;13.20;;;-1.10;99.90;;;;;;478437;248;27402;-65
2024/01/13 02:39:36;;;;;;;18.73;11.77;;;-1.00;99.90;;;;;;478421;248;27399;-66
2024/01/13 02:41:38;;;;;;;22.67;13.93;;;-1.10;99.90;;;;;;478430;248;27506;-65
2024/01/13 02:43:39;;;;;;;17.85;11.85;;;-1.10;99.90;;;;;;478265;247;27425;-65
2024/01/13 02:45:40;;;;;;;18.92;11.98;;;-1.10;99.90;;;;;;478383;248;27957;-65
2024/01/13 02:47:41;;;;;;;21.45;12.02;;;-1.10;99.90;;;;;;478400;248;27922;-65
2024/01/13 02:49:43;;;;;;;21.10;12.32;;;-1.10;99.90;;;;;;478403;248;27518;-66
2024/01/13 02:51:44;;;;;;;21.65;11.77;;;-1.10;99.90;;;;;;478429;248;27512;-65
2024/01/13 02:53:45;;;;;;;23.17;11.82;;;-1.10;99.90;;;;;;478429;248;27427;-65
2024/01/13 02:55:46;;;;;;;21.20;13.18;;;-1.10;99.90;;;;;;478411;248;27846;-65
2024/01/13 02:57:48;;;;;;;22.67;13.20;;;-1.10;99.90;;;;;;478426;248;27989;-65
2024/01/13 02:59:49;;;;;;;23.25;13.40;;;-1.00;99.90;;;;;;478434;248;27980;-66
2024/01/13 03:01:50;;;;;;;21.12;11.88;;;-1.00;99.90;;;;;;478424;248;27391;-65
2024/01/13 03:03:52;;;;;;;21.27;11.80;;;-1.00;99.90;;;;;;478435;248;27525;-65
2024/01/13 03:05:53;;;;;;;20.98;12.88;;;-1.00;99.90;;;;;;478379;248;27471;-65
2024/01/13 03:07:54;;;;;;;17.02;11.48;;;-1.00;99.90;;;;;;478419;248;27407;-65
2024/01/13 03:09:55;;;;;;;18.80;12.02;;;-1.00;99.90;;;;;;478434;248;27498;-66
2024/01/13 03:11:56;;;;;;;19.30;12.25;;;-1.00;99.90;;;;;;478425;248;27871;-65
2024/01/13 03:13:58;;;;;;;17.92;11.73;;;-1.00;99.90;;;;;;478433;248;27411;-65
2024/01/13 03:15:59;;;;;;;21.80;12.90;;;-1.00;99.90;;;;;;478401;248;27418;-66
2024/01/13 03:18:00;;;;;;;24.23;12.98;;;-1.00;99.90;;;;;;478424;248;27501;-64
2024/01/13 03:20:02;;;;;;;21.35;12.13;;;-1.10;99.90;;;;;;478427;248;27426;-65
2024/01/13 03:22:03;;;;;;;19.90;12.25;;;-1.10;99.90;;;;;;478436;248;27419;-65
2024/01/13 03:24:04;;;;;;;21.08;12.00;;;-1.10;99.90;;;;;;478416;248;27897;-65
2024/01/13 03:26:05;;;;;;;19.05;12.80;;;-1.10;99.90;;;;;;478422;247;29036;-65
2024/01/13 03:28:06;;;;;;;20.48;12.05;;;-1.10;99.90;;;;;;478406;248;27395;-65
2024/01/13 03:30:08;;;;;;;21.08;12.07;;;-1.10;99.90;;;;;;478418;248;27435;-65
2024/01/13 03:32:09;;;;;;;20.48;11.50;;;-1.00;99.90;;;;;;478417;248;27415;-65
2024/01/13 03:34:10;;;;;;;17.05;11.10;;;-1.00;99.90;;;;;;478404;248;27409;-65
2024/01/13 03:36:12;;;;;;;17.50;11.38;;;-1.10;99.90;;;;;;478452;248;27887;-65
2024/01/13 03:38:13;;;;;;;17.55;11.50;;;-1.00;99.90;;;;;;478445;248;27914;-65
2024/01/13 03:40:14;;;;;;;18.10;11.50;;;-1.00;99.90;;;;;;478450;248;27403;-65
2024/01/13 03:42:15;;;;;;;18.95;12.25;;;-1.00;99.90;;;;;;478439;248;27474;-66
2024/01/13 03:44:17;;;;;;;21.62;13.27;;;-1.00;99.90;;;;;;478417;248;27516;-65
2024/01/13 03:46:18;;;;;;;21.98;13.15;;;-1.00;99.90;;;;;;478454;248;27422;-65
2024/01/13 03:48:19;;;;;;;27.15;13.27;;;-1.10;99.90;;;;;;478440;248;27490;-66
2024/01/13 03:50:20;;;;;;;17.23;11.20;;;-1.10;99.90;;;;;;478458;248;27879;-65
2024/01/13 03:52:22;;;;;;;18.92;11.45;;;-1.10;99.90;;;;;;478450;248;27407;-65
2024/01/13 03:54:23;;;;;;;20.98;12.88;;;-1.10;99.90;;;;;;478426;248;27414;-65
2024/01/13 03:56:24;;;;;;;25.65;13.45;;;-1.00;99.90;;;;;;478449;248;27393;-65
2024/01/13 03:58:26;;;;;;;19.33;12.15;;;-1.00;99.90;;;;;;478447;248;27423;-66
2024/01/13 04:00:27;;;;;;;20.83;12.80;;;-1.00;99.90;;;;;;478453;248;27410;-65
2024/01/13 04:02:28;;;;;;;19.05;12.43;;;-1.00;99.90;;;;;;478450;248;27910;-65
2024/01/13 04:04:29;;;;;;;17.95;11.50;;;-1.00;99.90;;;;;;478422;248;27877;-65
2024/01/13 04:06:30;;;;;;;16.77;10.43;;;-1.00;99.90;;;;;;478438;247;27435;-65
2024/01/13 04:08:32;;;;;;;23.62;12.82;;;-1.00;99.90;;;;;;478441;248;27412;-66
2024/01/13 04:10:33;;;;;;;23.45;12.65;;;-1.00;99.90;;;;;;478450;248;27407;-65
2024/01/13 04:12:34;;;;;;;21.37;11.93;;;-1.00;99.90;;;;;;478449;248;27423;-65
2024/01/13 04:14:35;;;;;;;20.88;11.73;;;-1.10;99.90;;;;;;478326;248;27895;-66
2024/01/13 04:16:37;;;;;;;21.98;12.73;;;-1.10;99.90;;;;;;478427;247;27885;-64
2024/01/13 04:18:38;;;;;;;20.42;11.63;;;-1.10;99.90;;;;;;478453;248;27411;-65
2024/01/13 04:20:39;;;;;;;19.25;11.43;;;-1.00;99.90;;;;;;478449;248;27438;-65
2024/01/13 04:22:41;;;;;;;22.02;12.52;;;-1.00;99.90;;;;;;478440;248;27415;-65
2024/01/13 04:24:42;;;;;;;17.27;10.98;;;-1.00;99.90;;;;;;478421;248;27423;-66
2024/01/13 04:26:43;;;;;;;19.33;10.98;;;-1.00;99.90;;;;;;478454;248;27415;-65
2024/01/13 04:28:44;;;;;;;19.85;12.40;;;-1.00;99.90;;;;;;478443;247;27878;-65
2024/01/13 04:30:46;;;;;;;19.58;11.43;;;-1.00;99.90;;;;;;478450;248;27490;-65
2024/01/13 04:32:47;;;;;;;18.92;12.05;;;-1.00;99.90;;;;;;478441;248;27391;-65
2024/01/13 04:34:48;;;;;;;14.48;9.70;;;-1.00;99.90;;;;;;478419;248;27537;-66
2024/01/13 04:36:49;;;;;;;16.48;9.40;;;-1.10;99.90;;;;;;478451;248;27478;-65
2024/01/13 04:38:51;;;;;;;13.90;9.25;;;-1.10;99.90;;;;;;478455;248;27486;-65
2024/01/13 04:40:52;;;;;;;17.48;11.05;;;-1.00;99.90;;;;;;478432;248;27817;-66
2024/01/13 04:42:53;;;;;;;18.95;11.02;;;-1.00;99.90;;;;;;478447;248;27855;-65
2024/01/13 04:44:54;;;;;;;15.50;10.45;;;-1.00;99.90;;;;;;478396;248;27407;-66
2024/01/13 04:46:56;;;;;;;18.40;11.00;;;-1.00;99.90;;;;;;478446;248;27407;-65
2024/01/13 04:48:57;;;;;;;20.25;11.68;;;-1.00;99.90;;;;;;478436;248;27469;-65
2024/01/13 04:50:58;;;;;;;16.83;10.85;;;-1.00;99.90;;;;;;478354;248;27439;-66
2024/01/13 04:52:59;;;;;;;16.77;10.48;;;-1.00;99.90;;;;;;478437;248;27417;-65
2024/01/13 04:55:01;;;;;;;15.52;8.65;;;-1.00;99.90;;;;;;478405;248;27982;-66
2024/01/13 04:57:02;;;;;;;19.73;11.65;;;-1.00;99.90;;;;;;478443;248;27942;-65
2024/01/13 04:59:03;;;;;;;15.80;9.23;;;-1.00;99.90;;;;;;478454;248;27485;-65
2024/01/13 05:01:04;;;;;;;19.52;11.50;;;-1.00;99.90;;;;;;478444;248;27506;-66
2024/01/13 05:03:06;;;;;;;18.70;10.38;;;-1.00;99.90;;;;;;478442;248;27403;-65
2024/01/13 05:05:07;;;;;;;18.23;10.77;;;-0.90;99.90;;;;;;478423;248;27516;-66
2024/01/13 05:07:08;;;;;;;16.98;10.50;;;-0.90;99.90;;;;;;478436;247;28041;-66
2024/01/13 05:09:10;;;;;;;18.15;10.32;;;-0.90;99.90;;;;;;478438;248;27934;-65
2024/01/13 05:11:11;;;;;;;17.20;10.25;;;-1.00;99.90;;;;;;478433;248;27487;-65
2024/01/13 05:13:12;;;;;;;17.55;10.27;;;-1.00;99.90;;;;;;478444;248;27410;-65
2024/01/13 05:15:13;;;;;;;16.80;10.80;;;-1.00;99.90;;;;;;478406;248;27482;-65
2024/01/13 05:17:15;;;;;;;14.38;8.80;;;-1.00;99.90;;;;;;478435;248;27423;-65
2024/01/13 05:19:18;;;;;;;15.15;10.68;;;-1.00;99.90;;;;;;478441;248;27411;-65
2024/01/13 05:21:17;;;;;;;16.20;9.75;;;-1.00;99.90;;;;;;478349;248;27950;-65
2024/01/13 05:23:18;;;;;;;17.83;9.60;;;-0.90;99.90;;;;;;478443;248;27954;-66
2024/01/13 05:25:20;;;;;;;18.83;10.40;;;-1.00;99.90;;;;;;478383;248;27414;-65
2024/01/13 05:27:21;;;;;;;12.93;8.40;;;-1.00;99.90;;;;;;478358;248;27510;-65
2024/01/13 05:29:22;;;;;;;7.93;6.10;;;-1.00;99.90;;;;;;478432;248;27416;-65
2024/01/13 05:31:23;;;;;;;12.30;6.10;;;-1.00;99.90;;;;;;478438;248;27506;-65
2024/01/13 05:33:26;;;;;;;16.48;9.00;;;-1.00;99.90;;;;;;478445;248;27438;-66
2024/01/13 05:35:26;;;;;;;13.70;8.70;;;-1.00;99.90;;;;;;478356;247;27527;-65
2024/01/13 05:37:27;;;;;;;13.70;9.13;;;-1.00;99.90;;;;;;478446;248;27903;-65
2024/01/13 05:39:28;;;;;;;13.48;9.10;;;-1.00;99.90;;;;;;478429;248;29041;-65
2024/01/13 05:41:30;;;;;;;6.53;4.90;;;-1.00;99.90;;;;;;478434;248;27411;-65
2024/01/13 05:43:31;;;;;;;7.72;5.50;;;-1.00;99.90;;;;;;478447;248;27418;-65
2024/01/13 05:45:32;;;;;;;7.78;5.62;;;-1.00;99.90;;;;;;478409;248;27494;-65
2024/01/13 05:47:34;;;;;;;11.12;6.95;;;-1.00;99.90;;;;;;478433;247;27427;-65
2024/01/13 05:49:35;;;;;;;10.63;6.93;;;-1.00;99.90;;;;;;478435;248;27403;-65
2024/01/13 05:51:36;;;;;;;8.43;6.22;;;-1.00;99.90;;;;;;478438;247;27490;-65
2024/01/13 05:53:37;;;;;;;12.32;8.25;;;-1.10;99.90;;;;;;478363;248;27878;-65
2024/01/13 05:55:38;;;;;;;14.25;8.55;;;-1.00;99.90;;;;;;478412;248;27874;-65
2024/01/13 05:57:40;;;;;;;12.48;8.68;;;-1.00;99.90;;;;;;478439;248;27414;-65
2024/01/13 05:59:41;;;;;;;12.20;7.62;;;-1.00;99.90;;;;;;478442;248;27403;-66
2024/01/13 06:01:42;;;;;;;10.98;7.47;;;-1.10;99.90;;;;;;478431;248;27490;-65
2024/01/13 06:03:43;;;;;;;7.28;6.00;;;-1.00;99.90;;;;;;478444;247;27427;-65
2024/01/13 06:05:45;;;;;;;8.75;6.07;;;-1.00;99.90;;;;;;478413;248;27419;-65
2024/01/13 06:07:47;;;;;;;10.10;6.47;;;-1.00;99.90;;;;;;478439;248;27407;-65
2024/01/13 06:09:47;;;;;;;11.52;7.60;;;-0.90;99.90;;;;;;478380;248;27966;-66
2024/01/13 06:11:48;;;;;;;12.85;8.38;;;-1.00;99.90;;;;;;478431;248;27946;-65
2024/01/13 06:13:50;;;;;;;10.95;7.22;;;-1.00;99.90;;;;;;478401;248;27883;-65
2024/01/13 06:15:51;;;;;;;14.18;8.13;;;-1.00;99.90;;;;;;478410;248;27843;-65
2024/01/13 06:17:52;;;;;;;13.30;8.32;;;-0.90;99.90;;;;;;478436;248;27419;-65
2024/01/13 06:19:53;;;;;;;13.75;8.82;;;-1.00;99.90;;;;;;478440;248;27419;-66
2024/01/13 06:21:55;;;;;;;11.52;7.30;;;-1.00;99.90;;;;;;478451;248;27405;-65
2024/01/13 06:23:58;;;;;;;9.00;7.05;;;-1.00;99.90;;;;;;478434;248;27427;-65
2024/01/13 06:25:57;;;;;;;11.00;7.82;;;-1.00;99.90;;;;;;478286;248;27952;-66
2024/01/13 06:27:58;;;;;;;9.00;6.43;;;-1.00;99.90;;;;;;478433;248;27907;-65
2024/01/13 06:30:00;;;;;;;8.82;6.55;;;-1.00;99.90;;;;;;478436;248;27846;-65
2024/01/13 06:32:01;;;;;;;8.77;5.30;;;-1.00;99.90;;;;;;478426;248;27498;-65
2024/01/13 06:34:02;;;;;;;6.55;4.10;;;-0.90;99.90;;;;;;478425;248;27402;-65
2024/01/13 06:36:03;;;;;;;9.88;5.95;;;-1.00;99.90;;;;;;478427;247;27510;-66
2024/01/13 06:38:05;;;;;;;9.50;6.10;;;-1.00;99.90;;;;;;478426;248;27419;-65
2024/01/13 06:40:08;;;;;;;11.55;7.20;;;-1.00;99.90;;;;;;478432;248;27530;-65
2024/01/13 06:42:08;;;;;;;8.55;5.50;;;-1.00;99.90;;;;;;478329;248;27422;-65
2024/01/13 06:44:08;;;;;;;9.10;5.82;;;-1.00;99.90;;;;;;478408;248;27419;-65
2024/01/13 06:46:10;;;;;;;6.15;4.72;;;-1.00;99.90;;;;;;478424;248;27906;-66
2024/01/13 06:48:11;;;;;;;6.47;4.28;;;-1.10;99.90;;;;;;478427;248;27990;-64
2024/01/13 06:50:12;;;;;;;6.05;4.30;;;-1.00;99.90;;;;;;478431;248;27842;-65
2024/01/13 06:52:14;;;;;;;4.85;3.90;;;-1.00;99.90;;;;;;478437;248;27395;-66
2024/01/13 06:54:15;;;;;;;10.23;6.15;;;-0.90;99.90;;;;;;478405;248;27490;-65
2024/01/13 06:56:16;;;;;;;9.15;6.03;;;-1.00;99.90;;;;;;478440;248;27431;-65
2024/01/13 06:58:17;;;;;;;7.45;6.00;;;-1.10;99.90;;;;;;478438;248;27494;-65
2024/01/13 07:00:19;;;;;;;8.55;5.75;;;-1.10;99.90;;;;;;478436;248;27514;-65
2024/01/13 07:02:20;;;;;;;8.00;5.97;;;-1.10;99.90;;;;;;478397;247;27422;-66
2024/01/13 07:04:21;;;;;;;9.60;6.15;;;-1.10;99.90;;;;;;478400;247;27523;-65
2024/01/13 07:06:22;;;;;;;6.60;5.00;;;-1.10;99.90;;;;;;478431;248;27883;-65
2024/01/13 07:08:24;;;;;;;7.35;5.70;;;-1.00;99.90;;;;;;478434;248;27976;-64
2024/01/13 07:10:25;;;;;;;8.75;6.07;;;-1.00;99.90;;;;;;478424;248;27399;-65
2024/01/13 07:12:26;;;;;;;9.00;5.70;;;-1.00;99.90;;;;;;478456;248;27421;-65
2024/01/13 07:14:27;;;;;;;8.07;5.57;;;-0.90;99.90;;;;;;478412;248;27502;-65
2024/01/13 07:16:29;;;;;;;9.48;5.72;;;-0.90;99.90;;;;;;478464;248;27437;-65
2024/01/13 07:18:30;;;;;;;11.02;6.28;;;-0.90;99.90;;;;;;478456;248;27423;-64
2024/01/13 07:20:31;;;;;;;10.15;5.97;;;-0.90;99.90;;;;;;478452;247;27505;-65
2024/01/13 07:22:34;;;;;;;9.38;6.53;;;-1.00;99.90;;;;;;478439;248;27419;-66
2024/01/13 07:24:34;;;;;;;8.88;5.70;;;-1.00;99.90;;;;;;478369;248;27883;-65
2024/01/13 07:26:35;;;;;;;10.27;6.50;;;-1.00;99.90;;;;;;478441;248;27997;-65
2024/01/13 07:28:36;;;;;;;10.93;7.70;;;-1.10;99.90;;;;;;478443;248;27411;-66
2024/01/13 07:30:37;;;;;;;10.95;7.45;;;-1.20;99.90;;;;;;478454;248;27395;-65
2024/01/13 07:32:39;;;;;;;10.30;6.37;;;-1.20;99.90;;;;;;478447;247;27522;-65
2024/01/13 07:34:40;;;;;;;7.85;5.70;;;-1.30;99.90;;;;;;478427;248;27410;-65
2024/01/13 07:36:41;;;;;;;6.37;4.60;;;-1.20;99.90;;;;;;478445;247;27525;-65
2024/01/13 07:38:42;;;;;;;7.70;4.90;;;-1.20;99.90;;;;;;478454;248;27430;-66
2024/01/13 07:40:44;;;;;;;8.90;5.32;;;-1.10;99.90;;;;;;478458;248;27479;-65
2024/01/13 07:42:45;;;;;;;6.93;5.22;;;-1.10;99.90;;;;;;478453;248;27862;-64
2024/01/13 07:44:46;;;;;;;7.15;4.90;;;-1.00;99.90;;;;;;478284;248;28270;-65
2024/01/13 07:46:47;;;;;;;7.12;5.32;;;-1.10;99.90;;;;;;478492;248;27997;-65
2024/01/13 07:48:49;;;;;;;9.38;4.47;;;-1.00;99.90;;;;;;478459;248;27442;-65
2024/01/13 07:50:50;;;;;;;8.10;5.30;;;-1.00;99.90;;;;;;478443;248;27500;-65
2024/01/13 07:52:51;;;;;;;5.37;4.45;;;-1.00;99.90;;;;;;478441;247;27498;-65
2024/01/13 07:54:52;;;;;;;5.35;4.45;;;-1.00;99.90;;;;;;478411;248;27426;-66
2024/01/13 07:56:54;;;;;;;7.18;5.00;;;-0.90;99.90;;;;;;478457;248;27486;-65
2024/01/13 07:58:55;;;;;;;5.57;4.40;;;-0.90;99.90;;;;;;478456;248;27494;-65
2024/01/13 08:00:56;;;;;;;6.35;4.47;;;-0.90;99.90;;;;;;478457;248;27489;-64
2024/01/13 08:02:57;;;;;;;7.15;4.68;;;-1.00;99.90;;;;;;478448;248;27871;-65
2024/01/13 08:04:59;;;;;;;4.82;3.92;;;-0.90;99.90;;;;;;478432;248;27901;-67
2024/01/13 08:07:00;;;;;;;6.80;4.28;;;-0.90;99.90;;;;;;478452;248;27967;-65
2024/01/13 08:09:01;;;;;;;5.45;4.43;;;-0.90;99.90;;;;;;478446;248;27506;-65
2024/01/13 08:11:02;;;;;;;4.82;4.30;;;-0.90;99.90;;;;;;478450;248;27471;-65
2024/01/13 08:13:04;;;;;;;8.55;4.90;;;-0.80;99.90;;;;;;478446;248;27486;-65
2024/01/13 08:15:05;;;;;;;8.35;5.45;;;-0.90;99.90;;;;;;478429;248;27407;-65
2024/01/13 08:17:06;;;;;;;17.95;6.70;;;-0.80;99.90;;;;;;478447;248;27419;-65
2024/01/13 08:19:09;;;;;;;9.82;5.90;;;-0.90;99.90;;;;;;478452;247;27419;-65
2024/01/13 08:21:09;;;;;;;9.70;5.55;;;-1.00;99.90;;;;;;478338;248;27441;-66
2024/01/13 08:23:10;;;;;;;6.87;4.68;;;-1.00;99.90;;;;;;478447;248;27883;-65
2024/01/13 08:25:11;;;;;;;6.53;4.87;;;-1.10;99.90;;;;;;478422;248;27898;-65
2024/01/13 08:27:13;;;;;;;9.90;5.05;;;-1.10;99.90;;;;;;478453;248;27475;-65
2024/01/13 08:29:14;;;;;;;7.30;5.32;;;-1.10;99.90;;;;;;478448;248;27490;-65
2024/01/13 08:31:15;;;;;;;7.80;4.43;;;-1.10;99.90;;;;;;478443;248;27407;-65
2024/01/13 08:33:16;;;;;;;8.48;5.50;;;-1.00;99.90;;;;;;478446;248;27411;-65
2024/01/13 08:35:17;;;;;;;5.05;4.50;;;-1.00;99.90;;;;;;478397;248;27406;-65
2024/01/13 08:37:19;;;;;;;8.20;5.03;;;-1.00;99.90;;;;;;478439;248;27438;-65
2024/01/13 08:39:20;;;;;;;7.40;5.05;;;-1.10;99.90;;;;;;478468;248;27494;-65
2024/01/13 08:41:21;;;;;;;6.80;5.20;;;-1.20;99.90;;;;;;478462;248;27426;-65
2024/01/13 08:43:22;;;;;;;6.03;4.37;;;-1.10;99.90;;;;;;478352;248;27888;-65
2024/01/13 08:45:29;;;;;;;7.35;5.30;;;-1.10;99.90;;;;;;478425;248;27993;-65
2024/01/13 08:47:25;;;;;;;6.75;5.60;;;-1.10;99.90;;;;;;478139;248;27520;-65
2024/01/13 08:49:27;;;;;;;6.03;4.65;;;-1.10;99.90;;;;;;478448;248;27415;-65
2024/01/13 08:51:28;;;;;;;5.78;5.05;;;-1.20;99.90;;;;;;478391;248;27415;-65
2024/01/13 08:53:29;;;;;;;6.97;5.37;;;-1.10;99.90;;;;;;478444;248;27510;-65
2024/01/13 08:55:30;;;;;;;7.37;4.70;;;-1.10;99.90;;;;;;478415;248;27485;-65
2024/01/13 08:57:31;;;;;;;6.60;4.70;;;-1.00;99.90;;;;;;478443;248;27419;-66
2024/01/13 08:59:33;;;;;;;11.10;5.90;;;-1.00;99.90;;;;;;478439;248;27489;-64
2024/01/13 09:01:34;;;;;;;6.47;4.75;;;-1.00;99.90;;;;;;478434;248;28018;-65
2024/01/13 09:03:35;;;;;;;8.18;5.40;;;-0.90;99.90;;;;;;478448;248;27875;-65
2024/01/13 09:05:36;;;;;;;7.22;5.00;;;-0.80;99.90;;;;;;478416;248;27879;-65
2024/01/13 09:07:38;;;;;;;8.48;6.60;;;-0.80;99.90;;;;;;478444;248;27391;-65
2024/01/13 09:09:39;;;;;;;6.37;5.00;;;-0.80;99.90;;;;;;478443;248;27538;-65
2024/01/13 09:11:41;;;;;;;8.20;5.90;;;-0.80;99.90;;;;;;478419;248;27403;-66
2024/01/13 09:13:41;;;;;;;6.07;4.72;;;-0.80;99.90;;;;;;478416;248;27421;-65
2024/01/13 09:15:43;;;;;;;7.97;5.30;;;-0.80;99.90;;;;;;478405;248;27423;-65
2024/01/13 09:17:44;;;;;;;8.07;5.55;;;-0.80;99.90;;;;;;478438;248;27419;-66
2024/01/13 09:19:45;;;;;;;8.02;4.62;;;-0.70;99.90;;;;;;478438;248;27490;-64
2024/01/13 09:21:47;;;;;;;7.62;5.35;;;-0.70;99.90;;;;;;478443;248;27503;-65
2024/01/13 09:23:48;;;;;;;7.10;5.35;;;-0.70;99.90;;;;;;478446;248;27902;-66
2024/01/13 09:25:49;;;;;;;6.03;4.87;;;-0.90;99.90;;;;;;478412;248;29064;-65
2024/01/13 09:27:50;;;;;;;6.80;5.37;;;-0.90;99.90;;;;;;478445;248;27415;-65
2024/01/13 09:29:51;;;;;;;9.38;5.25;;;-0.90;99.90;;;;;;478436;247;27402;-65
2024/01/13 09:31:53;;;;;;;7.50;5.35;;;-0.90;99.90;;;;;;478436;248;27407;-65
2024/01/13 09:33:54;;;;;;;7.20;5.35;;;-0.90;99.90;;;;;;478453;248;27422;-66
2024/01/13 09:35:55;;;;;;;8.02;5.05;;;-0.90;99.90;;;;;;478410;248;27415;-65
2024/01/13 09:37:56;;;;;;;5.43;4.75;;;-0.80;99.90;;;;;;478453;248;27486;-65
2024/01/13 09:39:58;;;;;;;7.68;5.47;;;-0.80;99.90;;;;;;478448;247;27486;-65
2024/01/13 09:41:59;;;;;;;7.93;5.80;;;-0.80;99.90;;;;;;478439;248;27909;-65
2024/01/13 09:44:00;;;;;;;7.53;5.85;;;-0.70;99.90;;;;;;478440;248;28025;-65
2024/01/13 09:46:01;;;;;;;7.12;5.00;;;-0.70;99.90;;;;;;478405;248;27893;-65
2024/01/13 09:48:03;;;;;;;7.28;5.80;;;-0.60;99.90;;;;;;478443;248;27506;-65
2024/01/13 09:50:04;;;;;;;11.23;6.65;;;-0.60;99.90;;;;;;478459;248;27502;-65
2024/01/13 09:52:05;;;;;;;7.75;5.55;;;-0.60;99.90;;;;;;478417;248;27494;-65
2024/01/13 09:54:06;;;;;;;8.18;5.50;;;-0.60;99.90;;;;;;478405;248;27490;-67
2024/01/13 09:56:08;;;;;;;8.18;5.45;;;-0.60;99.90;;;;;;478443;248;27438;-65
2024/01/13 09:58:09;;;;;;;7.85;5.78;;;-0.60;99.90;;;;;;478442;248;27510;-65
2024/01/13 10:00:10;;;;;;;11.32;6.68;;;-0.70;99.90;;;;;;478440;248;27423;-66
2024/01/13 10:02:12;;;;;;;8.35;6.03;;;-0.80;99.90;;;;;;478427;248;27907;-65
2024/01/13 10:04:13;;;;;;;6.30;5.15;;;-0.80;99.90;;;;;;478401;248;28032;-65
2024/01/13 10:06:14;;;;;;;6.45;5.18;;;-0.70;99.90;;;;;;478429;248;27962;-65
2024/01/13 10:08:15;;;;;;;6.20;5.55;;;-0.70;99.90;;;;;;478430;248;27398;-65
2024/01/13 10:10:17;;;;;;;7.45;5.75;;;-0.60;99.90;;;;;;478436;247;27419;-65
2024/01/13 10:12:18;;;;;;;6.53;5.57;;;-0.60;99.90;;;;;;478426;248;27483;-65
2024/01/13 10:14:19;;;;;;;6.03;4.87;;;-0.60;99.90;;;;;;478387;248;27431;-66
2024/01/13 10:16:20;;;;;;;7.10;5.20;;;-0.60;99.90;;;;;;478458;248;27908;-65
2024/01/13 10:18:21;;;;;;;7.07;5.43;;;-0.50;99.90;;;;;;478436;248;27431;-65
2024/01/13 10:20:23;;;;;;;8.40;5.93;;;-0.50;99.90;;;;;;478422;248;27502;-65
2024/01/13 10:22:24;;;;;;;9.55;6.43;;;-0.50;99.90;;;;;;478431;248;27870;-65